Ivanhoe, Virginia
Current Conditions -  °F | °C
As of 8:55 PM on Friday 24 Oct 2014 (Local Time) from KHLX Reporting Station
Clear Clear  
Wind Chill: 51°   Ceiling: Unl
Heat Index: 51°   Visibility: 10mi
Dew Point: 32°   Wind: 10mph
Humidity: 47%   Direction: 330°NNW
Pressure: 30.04"   Gusts: NA
Location:  36.84°N, 80.97°W
Report Text: KHLX 250055Z AUTO 33009KT 10SM CLR 11/00 A3004 RMK AO2 T01080000
Loading
Personal Weather Stations






























Interactive Weather Map
Tropical Storm Tracking
New forecast layout! Learn more

10-Day Weather Forecast

Advertisements
Track Severe Weather on mobile